ETEB 260222Z AUTO 25008KT 9999 -RA BKN014 BKN021 08/07 A2950 RMK AO2 RAB22 SLP007 $ EDMA 260220Z AUTO 25008KT 9999 // FEW011/// BKN017/// OVC026/// 07/06 Q1001 ETIK 260156Z AUTO 26011KT 9999 SCT017 OVC048 09/09 A2951 RMK AO2 SLP996 T00870085 EDDT 260220Z 28004KT 240V310 9999 -RA NSC 11/08 Q0996 LSZB 260220Z AUTO 25009KT 220V280 9999 FEW035 SCT039 BKN043 07/04 Q1007 LIPB 252050Z VRB01KT 9999 BKN120 10/08 Q0998 RMK MON INVIS EDDW 260220Z 10003KT CAVOK 06/05 Q0996 LFMD 260230Z AUTO 24011KT 200V280 CAVOK 15/M00 Q1000 TEMPO 30015G30KT EDLW 260220Z AUTO 18008KT 9999 // FEW007/// BKN012/// OVC017/// 10/08 Q0994 EDDC 260220Z 27006KT 230V310 9999 -RA FEW026 OVC032 08/08 Q0997 RERA EDDL 260220Z 19011KT 9999 -DZ FEW005 BKN008 10/09 Q0993 NOSIG EDDE 260220Z 23003KT CAVOK 08/06 Q0997 LIRQ 260220Z AUTO VRB01KT 9999 FEW120/// 09/08 Q0995 EDDF 260220Z 22011KT 9999 FEW025 BKN035 10/06 Q0998 NOSIG EDNY 260220Z AUTO 26012KT 220V280 9999 // BKN013/// BKN018/// OVC028/// 08/06 Q1003 ETHF 260220Z 21008KT 9999 SCT020 BKN190 09/06 Q0996 BLU LIMJ 260220Z 05006KT CAVOK 15/02 Q0996 ETIC 260226Z AUTO 25003KT 9999 -RA FEW014 FEW021 08/ A2945 RMK AO2 SLP978 $ LOWG 260220Z AUTO 27005KT 230V340 9999 -RA FEW015 SCT042 BKN046 07/05 Q0994 EDDH 260220Z 07004KT CAVOK 07/05 Q0997 NOSIG EDDV 260220Z VRB02KT CAVOK 08/06 Q0996 NOSIG ETIH 260219Z AUTO 00000KT 8000 RA BR FEW010 SCT016 OVC031 08/06 A2949 RMK AO2 RAB04 SLP992 $ ETSI 260220Z AUTO 27011KT 6000 // ////// 08/07 Q0999 /// LOWI 260220Z AUTO VRB02KT 9999 -RA SCT010 BKN014 03/02 Q1001 EDHK 260220Z AUTO 00000KT 9999 // FEW100/// 06/05 Q0996 LOWK 260220Z AUTO 28003KT 260V320 9999 -RA FEW030 BKN038 06/04 Q0996 EDDK 260220Z 19008KT 9999 -RA BKN022 10/07 Q0995 NOSIG EDDP 260220Z 21006KT 9999 -RA BKN044 10/08 Q0997 NOSIG LOWL 260220Z AUTO 25007KT 9999 -RA FEW006 SCT012 BKN020 06/06 Q0998 LSZA 260220Z AUTO VRB01KT 9999 NSC 09/05 Q0997 LIML 260220Z AUTO 29009KT 9999 BKN170/// 14/02 Q0996 LFML 260230Z AUTO 31022KT CAVOK 13/04 Q1009 NOSIG LFMT 260230Z AUTO 31010KT CAVOK 14/04 Q1013 NOSIG EDLN 260220Z AUTO 21006KT 170V250 9999 // OVC008/// 10/09 Q0993 EDDM 260220Z 27011KT 9999 -RA SCT014 BKN024 08/06 Q1000 NOSIG EDDG 260220Z 13005KT 090V170 6000 -RADZ FEW004 BKN013 BKN030 09/08 Q0994 NOSIG ETSN 260220Z 25007KT 9999 FEW010 BKN018 BKN037 08/06 Q1000 WHT ETHN 260220Z 26015KT 9999 -RA OVC005 07/06 Q0999 YLO LFMN 260230Z 32013KT CAVOK 16/M00 Q0998 NOSIG EDDN 260220Z 26010KT 9999 -RA BKN019 09/06 Q0999 EDMO 260220Z AUTO 26011KT 9999 // FEW010/// SCT013/// OVC016/// 06/05 Q1001 LIPR 260220Z AUTO 30018KT 9999 -RA FEW052/// BKN120/// 13/06 Q0995 EDDR 260220Z 25015KT 9999 BKN033 09/03 Q1001 LOWS 260220Z AUTO 15006KT 9999 RA FEW011 SCT018 BKN022 04/04 Q1000 LSGS 260220Z AUTO 26008KT 210V290 9999 RA BKN///CB 06/05 Q1008 EDDS 260220Z 24009KT 210V280 9999 -RADZ FEW009 BKN018 08/06 Q1001 LFTH 260230Z AUTO 30015G29KT 270V340 CAVOK 14/01 Q1004 LIMF 260220Z VRB03KT CAVOK 09/03 Q0997 LIPZ 260220Z 06018KT 9999 -RA BKN060 11/08 Q0993 NOSIG LIPX 260220Z AUTO 28006KT 9999 BKN150/// 13/04 Q0993 EDXW 260220Z AUTO 25004KT 9999 // BKN170/// 10/06 Q0996 LOWW 260220Z 29018KT 9999 -RA FEW015 OVC043 07/04 Q0995 TEMPO RA LSZH 260220Z 25010KT 9999 -RA SCT013 BKN017 BKN022 08/06 Q1005 NOSIG

METAR Messwerte

Klicken Sie auf einen Ort, um die 36h-Historie abzurufen

Ort
m ü. NN
Zeit Temperatur Taupunkt Rel.
Luftfeuchte
Luftdruck:
Altimeter
NN
Station
Wind in Beaufort
(Knoten)
Sichtweite
(Meter)
Wolken
(Meter über Grund)
Wettererscheinung
Ansbach
467
Sa 26.09. 04:228793 %999
1000
945
WSW 3 (8)>= 10000Stark bewölkt (640)
Stark bewölkt (430)
Regen (schwach)
Augsburg
463
Sa 26.09. 04:207693 %1001
1002
947
WSW 3 (8)>= 10000Bedeckt (790)
Stark bewölkt (520)
Leicht bewölkt (340)
 
Bad Windsheim / Illesheim
325
Sa 26.09. 03:5699100 %999
1000
961
W 4 (11)>= 10000Bedeckt (1500)
Wolkig (520)
 
Berlin-Tegel
37
Sa 26.09. 04:2011882 %996
996
992
W 2 (4)
WSW - NW
>= 10000Nicht signifikantRegen (schwach)
Bern/Belp
505
Sa 26.09. 04:207481 %1007
1009
948
WSW 3 (9)
SW - W
>= 10000Stark bewölkt (1300)
Wolkig (1200)
Leicht bewölkt (1100)
 
Bozen
241
Fr 25.09. 22:5010887 %998
998
970
Uml 1 (1)>= 10000Stark bewölkt (3700) 
Bremen
5
Sa 26.09. 04:206593 %996
996
995
O 2 (3)>= 10000Nicht signifikant 
Cannes
9
Sa 26.09. 04:3015-036 %1000
1000
999
WSW 4 (11)
SSW - W
Bald möglich:
WNW 4 (15) - 7 (30)
>= 10000Nicht signifikant 
Dortmund/Wickede
127
Sa 26.09. 04:2010887 %994
994
979
S 3 (8)>= 10000Bedeckt (520)
Stark bewölkt (370)
Leicht bewölkt (210)
 
Dresden-Klotzsche
226
Sa 26.09. 04:2088100 %997
998
970
W 2 (6)
SW - NW
>= 10000Bedeckt (980)
Leicht bewölkt (790)
Regen (schwach)
Düsseldorf
44
Sa 26.09. 04:2010993 %993
993
988
S 4 (11)>= 10000Stark bewölkt (240)
Leicht bewölkt (150)
Nieselregen (schwach)
Erfurt-Bindersleben
323
Sa 26.09. 04:208687 %997
998
959
SW 2 (3)>= 10000Nicht signifikant 
Florenz
38
Sa 26.09. 04:209893 %995
995
991
Uml 1 (1)>= 10000Leicht bewölkt (3700) 
Frankfurt
113
Sa 26.09. 04:2010676 %998
998
985
SW 4 (11)>= 10000Stark bewölkt (1100)
Leicht bewölkt (760)
 
Friedrichshafen
424
Sa 26.09. 04:208687 %1003
1004
954
W 4 (12)
SW - W
>= 10000Bedeckt (850)
Stark bewölkt (550)
Stark bewölkt (400)
 
Fritzlar
181
Sa 26.09. 04:209681 %996
996
975
SSW 3 (8)>= 10000Stark bewölkt (5800)
Wolkig (610)
 
Genua
3
Sa 26.09. 04:2015241 %996
996
996
NO 2 (6)>= 10000Nicht signifikant 
Grafenwöhr
415
Sa 26.09. 04:26    %997
 
 
WSW 2 (3)>= 10000Leicht bewölkt (640)
Leicht bewölkt (430)
Regen (schwach)
Graz-Thalerhof
347
Sa 26.09. 04:207587 %994
995
954
W 2 (5)
SW - NNW
>= 10000Stark bewölkt (1400)
Wolkig (1300)
Leicht bewölkt (460)
Regen (schwach)
Hamburg-Fuhlsbüttel
16
Sa 26.09. 04:207587 %997
997
995
ONO 2 (4)>= 10000Nicht signifikant 
Hannover
54
Sa 26.09. 04:208687 %996
996
990
Uml 1 (2)>= 10000Nicht signifikant 
Hohenfels
442
Sa 26.09. 04:198687 %999
1000
948
Windstill8000Bedeckt (940)
Wolkig (490)
Leicht bewölkt (300)
Regen
Nebeldunst
Ingolstadt
370
Sa 26.09. 04:208793 %999
1000
956
W 4 (11)6000  
Innsbruck
581
Sa 26.09. 04:203293 %1001
1004
934
Uml 1 (2)>= 10000Stark bewölkt (430)
Wolkig (300)
Regen (schwach)
Kiel
31
Sa 26.09. 04:206593 %996
996
992
Windstill>= 10000Leicht bewölkt (3000) 
Klagenfurt
441
Sa 26.09. 04:206487 %996
998
945
W 2 (3)
W - NW
>= 10000Stark bewölkt (1200)
Leicht bewölkt (910)
Regen (schwach)
Köln/Bonn
99
Sa 26.09. 04:2010782 %995
995
983
S 3 (8)>= 10000Stark bewölkt (670)Regen (schwach)
Leipzig-Schkeuditz
149
Sa 26.09. 04:2010887 %997
997
979
SSW 2 (6)>= 10000Stark bewölkt (1300)Regen (schwach)
Linz/Hörsching
313
Sa 26.09. 04:2066100 %998
999
961
WSW 3 (7)>= 10000Stark bewölkt (610)
Wolkig (370)
Leicht bewölkt (180)
Regen (schwach)
Lugano
276
Sa 26.09. 04:209576 %997
998
965
Uml 1 (1)>= 10000Nicht signifikant 
Mailand
103
Sa 26.09. 04:2014244 %996
996
984
WNW 3 (9)>= 10000Stark bewölkt (5200) 
Marseille/Marignane
36
Sa 26.09. 04:3013454 %1009
1009
1005
NW 6 (22)>= 10000Nicht signifikant 
Montpellier
6
Sa 26.09. 04:3014451 %1013
1013
1012
NW 3 (10)>= 10000Nicht signifikant 
Mönchengladbach
38
Sa 26.09. 04:2010993 %993
993
989
SSW 2 (6)
S - WSW
>= 10000Bedeckt (240) 
München
447
Sa 26.09. 04:208687 %1000
1001
948
W 4 (11)>= 10000Stark bewölkt (730)
Wolkig (430)
Regen (schwach)
Münster/Osnabrück
52
Sa 26.09. 04:209893 %994
994
988
SO 2 (5)
O - S
6000Stark bewölkt (910)
Stark bewölkt (400)
Leicht bewölkt (120)
Regen/Nieselregen (schwach)
Neuburg/Donau
387
Sa 26.09. 04:208687 %1000
1001
955
WSW 3 (7)>= 10000Stark bewölkt (1100)
Stark bewölkt (550)
Leicht bewölkt (300)
 
Niederstetten
473
Sa 26.09. 04:207693 %999
1000
944
W 4 (15)>= 10000Bedeckt (150)Regen (schwach)
Nizza
10
Sa 26.09. 04:3016-034 %998
998
997
NW 4 (13)>= 10000Nicht signifikant 
Nürnberg
312
Sa 26.09. 04:209681 %999
1000
962
W 3 (10)>= 10000Stark bewölkt (580)Regen (schwach)
Oberpfaffenhofen
600
Sa 26.09. 04:206593 %1001
1003
932
W 4 (11)>= 10000Bedeckt (490)
Wolkig (400)
Leicht bewölkt (300)
 
Rimini
13
Sa 26.09. 04:2013662 %995
995
993
WNW 5 (18)>= 10000Stark bewölkt (3700)
Leicht bewölkt (1600)
Regen (schwach)
Saarbrücken/Ensheim
320
Sa 26.09. 04:209366 %1001
1002
964
WSW 4 (15)>= 10000Stark bewölkt (1000) 
Salzburg
450
Sa 26.09. 04:2044100 %1000
1002
948
SSO 2 (6)>= 10000Stark bewölkt (670)
Wolkig (550)
Leicht bewölkt (340)
Regen
Sion
481
Sa 26.09. 04:206593 %1008
1010
952
W 3 (8)
SSW - WNW
>= 10000 Regen
Stuttgart
419
Sa 26.09. 04:208687 %1001
1002
952
WSW 3 (9)
SSW - W
>= 10000Stark bewölkt (550)
Leicht bewölkt (270)
Regen/Nieselregen (schwach)
Toulon
4
Sa 26.09. 04:3014141 %1004
1004
1004
WNW 4 (15) - 7 (29)
W - NNW
>= 10000Nicht signifikant 
Turin
287
Sa 26.09. 04:209366 %997
998
963
Uml 2 (3)>= 10000Nicht signifikant 
Venedig
6
Sa 26.09. 04:2011882 %993
993
992
ONO 5 (18)>= 10000Stark bewölkt (1800)Regen (schwach)
Verona/Villafranca
68
Sa 26.09. 04:2013454 %993
993
985
W 2 (6)>= 10000Stark bewölkt (4600) 
Westerland/Sylt
20
Sa 26.09. 04:2010676 %996
996
994
WSW 2 (4)>= 10000Stark bewölkt (5200) 
Wien/Schwechat
190
Sa 26.09. 04:207481 %995
996
973
WNW 5 (18)>= 10000Bedeckt (1300)
Leicht bewölkt (460)
Regen (schwach)
Bald möglich: Regen
Zürich-Kloten
432
Sa 26.09. 04:208687 %1005
1006
955
WSW 3 (10)>= 10000Stark bewölkt (670)
Stark bewölkt (520)
Wolkig (400)
Regen (schwach)

Altimeter: Einstellung am Altimeter (Höhenmesser), die Höhe 0 muss auf diesen Luftdruckwert zeigen, damit das Gerät die Stationshöhe richtig anzeigt.

NN: Luftdruck reduziert auf "Normal Null", auf Meereshöhe, dieser von der Temperatur abhängige Wert wird bisweilen unkorrekt einfach als "Luftdruck" bezeichnet. Eigentlich nur eine fiktive Größe, die es erlaubt, Stationen auf unterschiedlichen Höhen miteinander zu vergleichen.

Station: Realer Luftdruck an der Station.